Time;durP1;ratioP1;P1;durP2;ratioP2;P2;SDS_P1;SDS_P2;PMS_P1;PMS_P2;Temp;Humidity;BMP_temperature;BMP_pressure;BME280_temperature;BME280_humidity;BME280_pressure;Samples;Min_cycle;Max_cycle;Signal;HPM_P1;HPM_P2
2022/01/21 00:02:24;;;;;;;6.37;1.90;;;;;;;;;;10450192;28;19937;-77
2022/01/21 00:07:28;;;;;;;2.93;1.60;;;;;;;;;;10456264;28;20044;-77
2022/01/21 00:12:33;;;;;;;7.47;2.40;;;;;;;;;;10436275;28;20072;-76
2022/01/21 00:17:38;;;;;;;8.93;2.40;;;;;;;;;;10437550;28;20033;-77
2022/01/21 00:33:23;;;;;;;1.67;0.77;;;;;;;;;;10461154;28;20041;-78
2022/01/21 00:38:30;;;;;;;4.10;1.80;;;;;;;;;;10464805;28;20032;-76
2022/01/21 00:43:43;;;;;;;3.17;1.50;;;;;;;;;;10465731;28;20040;-78
2022/01/21 00:48:46;;;;;;;4.73;1.57;;;;;;;;;;10450924;28;20041;-78
2022/01/21 00:53:51;;;;;;;4.40;1.73;;;;;;;;;;10456914;28;20069;-77
2022/01/21 00:58:54;;;;;;;7.07;1.23;;;;;;;;;;10460911;28;20123;-78
2022/01/21 01:03:58;;;;;;;8.65;2.17;;;;;;;;;;10461826;28;20037;-77
2022/01/21 01:09:02;;;;;;;2.43;1.67;;;;;;;;;;10473766;28;20037;-78
2022/01/21 01:30:11;;;;;;;3.17;1.63;;;;;;;;;;10458846;28;20547;-77
2022/01/21 01:35:15;;;;;;;3.57;1.23;;;;;;;;;;10454539;28;20131;-77
2022/01/21 01:40:25;;;;;;;4.82;1.50;;;;;;;;;;10454323;28;20568;-77
2022/01/21 01:50:49;;;;;;;3.80;1.37;;;;;;;;;;10480679;23;20483;-71
2022/01/21 01:55:53;;;;;;;1.02;0.88;;;;;;;;;;10509139;28;20146;-69
2022/01/21 02:00:57;;;;;;;1.93;1.43;;;;;;;;;;10497948;28;20491;-69
2022/01/21 02:06:01;;;;;;;12.05;1.90;;;;;;;;;;10468820;28;20048;-69
2022/01/21 02:11:06;;;;;;;7.50;2.03;;;;;;;;;;10470636;28;20044;-69
2022/01/21 02:16:17;;;;;;;5.27;1.87;;;;;;;;;;10470331;28;20039;-70
2022/01/21 02:21:30;;;;;;;6.13;0.90;;;;;;;;;;10466538;28;20048;-71
2022/01/21 02:26:34;;;;;;;3.60;1.03;;;;;;;;;;10467768;28;20044;-69
2022/01/21 02:31:39;;;;;;;0.63;0.52;;;;;;;;;;10467858;28;20090;-70
2022/01/21 02:36:43;;;;;;;4.85;1.33;;;;;;;;;;10466345;28;20028;-71
2022/01/21 02:41:47;;;;;;;4.80;0.73;;;;;;;;;;10467495;28;20150;-71
2022/01/21 02:46:55;;;;;;;4.30;1.30;;;;;;;;;;10471959;28;20043;-70
2022/01/21 02:52:01;;;;;;;3.73;1.60;;;;;;;;;;10465705;28;20028;-70
2022/01/21 02:57:09;;;;;;;0.70;0.60;;;;;;;;;;10469003;28;20136;-70
2022/01/21 03:02:13;;;;;;;2.63;0.90;;;;;;;;;;10475461;28;21656;-70
2022/01/21 03:07:18;;;;;;;10.83;2.70;;;;;;;;;;10474640;28;20037;-69
2022/01/21 03:12:22;;;;;;;1.47;0.97;;;;;;;;;;10468009;28;20139;-70
2022/01/21 03:17:25;;;;;;;3.03;0.80;;;;;;;;;;10466054;28;20086;-71
2022/01/21 03:22:29;;;;;;;2.20;0.63;;;;;;;;;;10469330;28;20040;-70
2022/01/21 03:27:33;;;;;;;3.00;1.60;;;;;;;;;;10472118;28;20455;-71
2022/01/21 03:32:36;;;;;;;1.23;0.50;;;;;;;;;;10468940;28;20059;-70
2022/01/21 03:37:40;;;;;;;1.67;0.77;;;;;;;;;;10470156;28;20048;-70
2022/01/21 03:42:43;;;;;;;7.43;1.37;;;;;;;;;;10467997;28;20033;-71
2022/01/21 03:47:46;;;;;;;4.30;1.93;;;;;;;;;;10470983;28;20068;-70
2022/01/21 03:52:51;;;;;;;2.27;1.37;;;;;;;;;;10483608;28;20128;-69
2022/01/21 03:57:54;;;;;;;11.77;2.40;;;;;;;;;;10480879;28;20058;-70
2022/01/21 04:02:57;;;;;;;0.60;0.40;;;;;;;;;;10479185;28;20044;-70
2022/01/21 04:08:02;;;;;;;3.43;1.60;;;;;;;;;;10480729;28;20131;-70
2022/01/21 04:13:07;;;;;;;1.70;0.93;;;;;;;;;;10488106;28;20037;-71
2022/01/21 04:18:10;;;;;;;1.40;0.67;;;;;;;;;;10484921;28;20435;-70
2022/01/21 04:23:15;;;;;;;10.73;1.70;;;;;;;;;;10484724;28;20133;-71
2022/01/21 04:28:17;;;;;;;;;;;;;;;;;;10483696;28;20052;-70
2022/01/21 04:33:20;;;;;;;6.73;1.80;;;;;;;;;;10506003;28;19988;-69
2022/01/21 04:38:25;;;;;;;4.43;2.07;;;;;;;;;;10517202;28;20061;-69
2022/01/21 04:48:48;;;;;;;1.30;0.87;;;;;;;;;;10473057;28;20059;-70
2022/01/21 04:53:53;;;;;;;4.13;1.07;;;;;;;;;;10476934;28;20052;-70
2022/01/21 04:58:56;;;;;;;4.75;1.27;;;;;;;;;;10477810;28;20100;-70
2022/01/21 05:03:58;;;;;;;0.77;0.53;;;;;;;;;;10483153;28;20456;-69
2022/01/21 05:09:04;;;;;;;6.03;2.20;;;;;;;;;;10477203;28;20588;-72
2022/01/21 05:14:16;;;;;;;2.27;1.27;;;;;;;;;;10490348;28;20074;-70
2022/01/21 05:19:19;;;;;;;4.20;1.90;;;;;;;;;;10479578;28;20040;-71
2022/01/21 05:24:24;;;;;;;4.60;1.97;;;;;;;;;;10476727;28;20117;-70
2022/01/21 05:29:28;;;;;;;2.93;1.60;;;;;;;;;;10479779;28;20071;-70
2022/01/21 05:34:31;;;;;;;4.03;1.23;;;;;;;;;;10474468;28;20308;-70
2022/01/21 05:39:35;;;;;;;5.13;1.13;;;;;;;;;;10479417;28;20068;-72
2022/01/21 05:49:58;;;;;;;3.40;1.17;;;;;;;;;;10467582;28;20036;-68
2022/01/21 05:55:03;;;;;;;1.87;0.60;;;;;;;;;;10474005;28;20048;-69
2022/01/21 06:00:07;;;;;;;1.77;0.83;;;;;;;;;;10469940;28;20033;-70
2022/01/21 06:05:10;;;;;;;0.25;0.25;;;;;;;;;;10472397;28;20507;-69
2022/01/21 06:10:14;;;;;;;0.93;0.43;;;;;;;;;;10471931;28;20450;-69
2022/01/21 06:15:17;;;;;;;1.27;0.97;;;;;;;;;;10465630;28;20047;-69
2022/01/21 06:20:20;;;;;;;0.40;0.40;;;;;;;;;;10466472;28;20441;-70
2022/01/21 06:25:25;;;;;;;5.27;0.83;;;;;;;;;;10468811;28;20047;-69
2022/01/21 06:30:28;;;;;;;2.60;0.63;;;;;;;;;;10470090;28;20037;-70
2022/01/21 06:35:31;;;;;;;0.63;0.30;;;;;;;;;;10468155;28;20051;-70
2022/01/21 06:40:36;;;;;;;1.00;0.70;;;;;;;;;;10470778;28;20119;-70
2022/01/21 06:45:42;;;;;;;1.50;0.67;;;;;;;;;;10463315;28;20112;-70
2022/01/21 06:50:45;;;;;;;2.63;0.97;;;;;;;;;;10467272;28;20361;-70
2022/01/21 06:55:49;;;;;;;1.33;0.87;;;;;;;;;;10468309;28;20087;-70
2022/01/21 07:00:52;;;;;;;4.50;1.07;;;;;;;;;;10466527;28;20127;-68
2022/01/21 07:05:55;;;;;;;1.20;0.63;;;;;;;;;;10460338;28;20036;-69
2022/01/21 07:10:59;;;;;;;1.53;0.50;;;;;;;;;;10463329;28;20098;-69
2022/01/21 07:16:02;;;;;;;;;;;;;;;;;;10477631;28;20032;-70
2022/01/21 07:21:06;;;;;;;1.07;0.80;;;;;;;;;;10468250;28;19924;-69
2022/01/21 07:26:12;;;;;;;2.00;1.20;;;;;;;;;;10474122;28;20102;-69
2022/01/21 07:31:16;;;;;;;2.40;0.63;;;;;;;;;;10476801;28;20064;-69
2022/01/21 07:36:19;;;;;;;1.33;0.95;;;;;;;;;;10476954;28;20064;-69
2022/01/21 07:41:24;;;;;;;3.07;2.17;;;;;;;;;;10474739;28;20119;-70
2022/01/21 07:46:27;;;;;;;1.70;1.20;;;;;;;;;;10476049;28;20040;-69
2022/01/21 07:51:30;;;;;;;0.77;0.60;;;;;;;;;;10495653;22;20043;-75
2022/01/21 07:56:34;;;;;;;3.67;1.37;;;;;;;;;;10489584;28;20481;-76
2022/01/21 08:01:38;;;;;;;0.67;0.43;;;;;;;;;;10495621;28;20111;-76
2022/01/21 08:06:41;;;;;;;3.40;0.60;;;;;;;;;;10489860;28;20086;-77
2022/01/21 08:11:45;;;;;;;1.70;1.10;;;;;;;;;;10487283;28;20101;-75
2022/01/21 08:16:48;;;;;;;;;;;;;;;;;;10488630;28;20172;-76
2022/01/21 08:21:51;;;;;;;0.90;0.60;;;;;;;;;;10480051;28;19959;-77
2022/01/21 08:26:55;;;;;;;3.40;1.55;;;;;;;;;;10487014;28;20079;-77
2022/01/21 08:31:58;;;;;;;4.82;1.52;;;;;;;;;;10486965;28;20043;-77
2022/01/21 08:37:01;;;;;;;3.72;1.17;;;;;;;;;;10490237;28;20049;-76
2022/01/21 08:42:06;;;;;;;6.27;2.10;;;;;;;;;;10496011;28;20033;-77
2022/01/21 08:47:09;;;;;;;4.60;1.33;;;;;;;;;;10504250;28;20037;-77
2022/01/21 08:52:20;;;;;;;10.93;2.10;;;;;;;;;;10490158;28;20120;-80
2022/01/21 08:57:25;;;;;;;3.35;1.27;;;;;;;;;;10478629;28;20091;-78
2022/01/21 09:02:28;;;;;;;7.70;2.17;;;;;;;;;;10489590;28;20124;-78
2022/01/21 09:07:31;;;;;;;3.60;1.42;;;;;;;;;;10474336;28;20036;-78
2022/01/21 09:12:36;;;;;;;2.05;1.20;;;;;;;;;;10501800;22;20710;-77
2022/01/21 09:17:39;;;;;;;4.18;1.27;;;;;;;;;;10489932;28;20033;-76
2022/01/21 09:22:42;;;;;;;3.17;2.10;;;;;;;;;;10471783;28;20388;-73
2022/01/21 09:27:47;;;;;;;8.27;2.23;;;;;;;;;;10474284;28;20044;-75
2022/01/21 09:32:49;;;;;;;3.50;1.88;;;;;;;;;;10472739;28;20512;-76
2022/01/21 09:37:52;;;;;;;6.47;1.87;;;;;;;;;;10476326;28;20033;-75
2022/01/21 09:43:17;;;;;;;3.45;1.48;;;;;;;;;;10475722;28;20044;-75
2022/01/21 09:48:23;;;;;;;9.05;3.08;;;;;;;;;;10467763;28;20493;-76
2022/01/21 09:53:27;;;;;;;7.87;2.50;;;;;;;;;;10466945;28;20047;-76
2022/01/21 09:58:31;;;;;;;6.55;1.75;;;;;;;;;;10473612;28;20040;-76
2022/01/21 10:03:35;;;;;;;2.75;1.17;;;;;;;;;;10475034;28;20073;-76
2022/01/21 10:08:41;;;;;;;1.65;0.98;;;;;;;;;;10471863;28;20037;-76
2022/01/21 10:13:47;;;;;;;1.55;0.55;;;;;;;;;;10464808;28;20033;-76
2022/01/21 10:19:01;;;;;;;5.93;1.90;;;;;;;;;;10477051;28;20045;-74
2022/01/21 10:24:07;;;;;;;2.83;1.15;;;;;;;;;;10473419;28;20135;-76
2022/01/21 10:29:13;;;;;;;3.80;1.67;;;;;;;;;;10470065;28;20041;-74
2022/01/21 10:34:23;;;;;;;3.58;1.50;;;;;;;;;;10500785;28;20064;-78
2022/01/21 10:39:31;;;;;;;4.05;1.30;;;;;;;;;;10477968;28;20068;-76
2022/01/21 10:44:49;;;;;;;7.13;2.25;;;;;;;;;;10467508;28;20124;-75
2022/01/21 10:49:58;;;;;;;3.50;1.53;;;;;;;;;;10469849;28;20116;-75
2022/01/21 10:55:01;;;;;;;9.97;1.30;;;;;;;;;;10471965;28;20180;-75
2022/01/21 11:00:09;;;;;;;2.53;1.15;;;;;;;;;;10469635;28;20452;-76
2022/01/21 11:05:14;;;;;;;3.33;1.40;;;;;;;;;;10464949;28;20091;-79
2022/01/21 11:10:32;;;;;;;7.67;1.90;;;;;;;;;;10465506;28;20037;-77
2022/01/21 11:15:40;;;;;;;3.00;1.17;;;;;;;;;;10495660;28;20048;-75
2022/01/21 11:20:46;;;;;;;0.97;0.67;;;;;;;;;;10472521;28;20036;-75
2022/01/21 11:25:50;;;;;;;3.10;0.80;;;;;;;;;;10468728;28;20094;-75
2022/01/21 11:30:55;;;;;;;3.88;0.80;;;;;;;;;;10463976;28;20432;-76
2022/01/21 11:35:59;;;;;;;6.93;1.83;;;;;;;;;;10462753;28;20045;-77
2022/01/21 11:41:03;;;;;;;7.18;2.08;;;;;;;;;;10463047;28;20439;-76
2022/01/21 11:46:25;;;;;;;2.20;1.33;;;;;;;;;;10466683;28;20496;-77
2022/01/21 11:51:31;;;;;;;7.60;1.23;;;;;;;;;;10470160;28;20084;-79
2022/01/21 11:56:42;;;;;;;1.95;1.55;;;;;;;;;;10469626;28;20500;-74
2022/01/21 12:01:47;;;;;;;9.00;2.55;;;;;;;;;;10466702;28;20067;-75
2022/01/21 12:06:51;;;;;;;3.97;2.08;;;;;;;;;;10469154;28;20068;-77
2022/01/21 12:11:57;;;;;;;7.87;2.77;;;;;;;;;;10470471;28;20451;-76
2022/01/21 12:17:15;;;;;;;3.50;2.05;;;;;;;;;;10477032;28;20040;-75
2022/01/21 12:22:18;;;;;;;2.85;1.80;;;;;;;;;;10483588;28;20535;-76
2022/01/21 12:27:23;;;;;;;3.25;1.40;;;;;;;;;;10474707;28;20037;-78
2022/01/21 12:32:44;;;;;;;5.00;1.77;;;;;;;;;;10477236;28;20226;-79
2022/01/21 12:39:05;;;;;;;3.33;1.73;;;;;;;;;;10478336;28;20495;-76
2022/01/21 12:43:43;;;;;;;7.38;1.08;;;;;;;;;;10476989;28;20655;-77
2022/01/21 12:48:48;;;;;;;7.10;1.45;;;;;;;;;;10469776;28;20139;-75
2022/01/21 12:59:18;;;;;;;4.22;1.65;;;;;;;;;;10473659;28;20041;-75
2022/01/21 13:04:28;;;;;;;2.30;1.00;;;;;;;;;;10473190;28;20036;-76
2022/01/21 13:09:43;;;;;;;7.30;2.50;;;;;;;;;;10470999;28;20043;-75
2022/01/21 13:14:46;;;;;;;;;;;;;;;;;;10466838;28;20033;-77
2022/01/21 13:19:51;;;;;;;8.60;2.65;;;;;;;;;;10468518;28;19966;-77
2022/01/21 13:25:03;;;;;;;7.40;2.70;;;;;;;;;;10471829;28;21585;-74
2022/01/21 13:30:08;;;;;;;3.38;1.95;;;;;;;;;;10471234;28;20151;-75
2022/01/21 13:35:14;;;;;;;2.05;1.55;;;;;;;;;;10471392;28;20046;-76
2022/01/21 13:40:19;;;;;;;3.75;1.48;;;;;;;;;;10469443;28;20033;-77
2022/01/21 13:45:22;;;;;;;2.72;1.60;;;;;;;;;;10470689;28;20041;-76
2022/01/21 13:50:27;;;;;;;4.43;1.55;;;;;;;;;;10472879;28;20113;-75
2022/01/21 13:55:31;;;;;;;3.35;1.48;;;;;;;;;;10473143;28;20028;-79
2022/01/21 14:00:35;;;;;;;4.82;1.20;;;;;;;;;;10472691;28;20078;-77
2022/01/21 14:05:44;;;;;;;9.25;1.60;;;;;;;;;;10466045;28;20533;-75
2022/01/21 14:10:47;;;;;;;1.23;1.02;;;;;;;;;;10475686;28;20025;-76
2022/01/21 14:15:50;;;;;;;4.97;1.10;;;;;;;;;;10472923;28;20727;-77
2022/01/21 14:21:04;;;;;;;4.17;1.57;;;;;;;;;;10464366;28;20098;-75
2022/01/21 14:26:07;;;;;;;3.20;1.77;;;;;;;;;;10468965;28;20437;-77
2022/01/21 14:31:26;;;;;;;2.30;0.75;;;;;;;;;;10469340;28;20680;-76
2022/01/21 14:36:31;;;;;;;2.97;1.60;;;;;;;;;;10466163;28;20032;-75
2022/01/21 14:41:38;;;;;;;4.37;1.03;;;;;;;;;;10465959;28;20044;-74
2022/01/21 14:47:04;;;;;;;1.63;0.50;;;;;;;;;;10464978;28;20163;-77
2022/01/21 14:57:29;;;;;;;3.13;0.87;;;;;;;;;;10462472;28;20095;-75
2022/01/21 15:02:35;;;;;;;2.92;1.63;;;;;;;;;;10467723;28;20071;-76
2022/01/21 15:07:41;;;;;;;4.33;1.07;;;;;;;;;;10463342;28;20127;-75
2022/01/21 15:18:06;;;;;;;6.37;1.80;;;;;;;;;;10491475;28;20131;-75
2022/01/21 15:23:16;;;;;;;5.87;2.40;;;;;;;;;;10470553;28;20087;-76
2022/01/21 15:28:19;;;;;;;6.10;1.90;;;;;;;;;;10467032;28;20619;-77
2022/01/21 15:33:23;;;;;;;5.82;2.13;;;;;;;;;;10482240;22;20135;-72
2022/01/21 15:38:28;;;;;;;2.60;1.20;;;;;;;;;;10475552;28;20055;-69
2022/01/21 15:43:31;;;;;;;8.33;2.50;;;;;;;;;;10499200;28;20631;-71
2022/01/21 15:48:35;;;;;;;8.95;1.80;;;;;;;;;;10486397;28;20041;-69
2022/01/21 15:53:40;;;;;;;1.07;0.70;;;;;;;;;;10484452;28;20033;-70
2022/01/21 15:58:42;;;;;;;;;;;;;;;;;;10488486;28;20531;-69
2022/01/21 16:03:46;;;;;;;5.37;2.00;;;;;;;;;;10491906;28;20287;-71
2022/01/21 16:08:54;;;;;;;8.03;2.93;;;;;;;;;;10497721;28;20068;-69
2022/01/21 16:13:57;;;;;;;2.27;1.57;;;;;;;;;;10486952;28;20120;-70
2022/01/21 16:19:02;;;;;;;1.23;0.83;;;;;;;;;;10486926;28;20068;-70
2022/01/21 16:24:08;;;;;;;3.77;1.13;;;;;;;;;;10483801;28;20048;-69
2022/01/21 16:29:11;;;;;;;1.13;0.80;;;;;;;;;;10479596;28;20460;-69
2022/01/21 16:34:14;;;;;;;6.50;2.60;;;;;;;;;;10485134;28;20174;-69
2022/01/21 16:39:18;;;;;;;1.93;1.00;;;;;;;;;;10481469;28;20120;-70
2022/01/21 16:44:21;;;;;;;;;;;;;;;;;;10484418;28;20047;-71
2022/01/21 16:49:24;;;;;;;4.80;2.17;;;;;;;;;;10488044;28;20404;-70
2022/01/21 16:54:29;;;;;;;4.37;1.63;;;;;;;;;;10484966;28;20041;-74
2022/01/21 16:59:32;;;;;;;4.30;2.00;;;;;;;;;;10486054;28;20135;-70
2022/01/21 17:04:38;;;;;;;8.70;1.70;;;;;;;;;;10478500;28;20219;-70
2022/01/21 17:09:43;;;;;;;4.53;1.43;;;;;;;;;;10483548;28;20175;-71
2022/01/21 17:14:47;;;;;;;2.23;0.97;;;;;;;;;;10486740;28;20066;-70
2022/01/21 17:19:50;;;;;;;7.07;2.00;;;;;;;;;;10482237;28;20036;-70
2022/01/21 17:24:55;;;;;;;6.37;2.83;;;;;;;;;;10483312;28;20105;-69
2022/01/21 17:29:58;;;;;;;6.60;1.90;;;;;;;;;;10483648;28;20056;-71
2022/01/21 17:35:02;;;;;;;7.70;3.10;;;;;;;;;;10481636;28;20066;-70
2022/01/21 17:40:08;;;;;;;3.40;1.57;;;;;;;;;;10481987;28;20119;-71
2022/01/21 17:45:15;;;;;;;10.60;2.53;;;;;;;;;;10484772;28;20052;-69
2022/01/21 17:50:19;;;;;;;7.50;2.93;;;;;;;;;;10479168;28;20071;-71
2022/01/21 17:55:24;;;;;;;7.65;2.35;;;;;;;;;;10481451;28;20049;-71
2022/01/21 18:00:28;;;;;;;6.57;2.47;;;;;;;;;;10484943;28;20132;-69
2022/01/21 18:05:32;;;;;;;6.68;2.38;;;;;;;;;;10480789;28;20052;-70
2022/01/21 18:10:52;;;;;;;7.03;2.03;;;;;;;;;;10479477;28;20136;-71
2022/01/21 18:15:56;;;;;;;1.43;1.00;;;;;;;;;;10482919;28;20036;-69
2022/01/21 18:20:59;;;;;;;6.25;3.03;;;;;;;;;;10481577;28;20032;-71
2022/01/21 18:26:05;;;;;;;7.10;2.30;;;;;;;;;;10484373;28;20056;-72
2022/01/21 18:31:08;;;;;;;12.63;3.63;;;;;;;;;;10480147;28;20041;-72
2022/01/21 18:36:12;;;;;;;4.28;1.63;;;;;;;;;;10481321;28;20361;-70
2022/01/21 18:41:17;;;;;;;3.65;1.67;;;;;;;;;;10478323;28;20044;-71
2022/01/21 18:46:24;;;;;;;6.37;1.97;;;;;;;;;;10478741;28;20052;-69
2022/01/21 18:51:28;;;;;;;6.10;2.23;;;;;;;;;;10469105;28;20480;-70
2022/01/21 18:56:33;;;;;;;11.10;2.87;;;;;;;;;;10476877;28;20056;-69
2022/01/21 19:01:39;;;;;;;5.40;1.97;;;;;;;;;;10471426;28;20127;-70
2022/01/21 19:06:42;;;;;;;4.57;1.73;;;;;;;;;;10474791;28;20803;-69
2022/01/21 19:11:47;;;;;;;8.23;2.30;;;;;;;;;;10474071;28;20046;-68
2022/01/21 19:16:50;;;;;;;6.80;1.97;;;;;;;;;;10473394;28;20047;-69
2022/01/21 19:21:53;;;;;;;6.17;2.00;;;;;;;;;;10484457;28;20093;-68
2022/01/21 19:27:07;;;;;;;8.40;2.10;;;;;;;;;;10485880;28;20044;-68
2022/01/21 19:32:10;;;;;;;3.90;1.53;;;;;;;;;;10487729;28;20066;-70
2022/01/21 19:37:14;;;;;;;5.43;2.33;;;;;;;;;;10488277;28;20072;-68
2022/01/21 19:42:18;;;;;;;11.13;3.37;;;;;;;;;;10484586;28;20123;-68
2022/01/21 19:47:31;;;;;;;7.07;1.97;;;;;;;;;;10487507;28;20127;-68
2022/01/21 19:52:34;;;;;;;6.70;1.93;;;;;;;;;;10483975;28;20033;-68
2022/01/21 19:57:41;;;;;;;2.70;1.40;;;;;;;;;;10488014;28;20043;-69
2022/01/21 20:13:46;;;;;;;6.37;2.40;;;;;;;;;;10485690;28;20040;-68
2022/01/21 20:18:51;;;;;;;10.33;3.10;;;;;;;;;;10480962;28;20040;-70
2022/01/21 20:23:56;;;;;;;2.77;1.37;;;;;;;;;;10485972;28;20094;-71
2022/01/21 20:29:01;;;;;;;1.87;1.20;;;;;;;;;;10487592;28;20132;-68
2022/01/21 20:34:04;;;;;;;1.93;1.10;;;;;;;;;;10486244;28;20148;-69
2022/01/21 20:39:13;;;;;;;2.43;1.03;;;;;;;;;;10487467;28;20037;-70
2022/01/21 20:44:20;;;;;;;5.97;0.90;;;;;;;;;;10482593;28;20901;-69
2022/01/21 20:49:24;;;;;;;3.97;1.10;;;;;;;;;;10487135;28;20078;-70
2022/01/21 20:54:27;;;;;;;5.30;2.08;;;;;;;;;;10483116;28;20067;-69
2022/01/21 20:59:32;;;;;;;2.10;1.03;;;;;;;;;;10485431;28;20094;-68
2022/01/21 21:04:36;;;;;;;5.37;2.10;;;;;;;;;;10479927;28;20052;-68
2022/01/21 21:09:39;;;;;;;2.97;1.20;;;;;;;;;;10473946;28;20032;-68
2022/01/21 21:14:48;;;;;;;2.72;1.02;;;;;;;;;;10482000;28;20067;-69
2022/01/21 21:25:13;;;;;;;8.77;2.83;;;;;;;;;;10483273;28;20051;-68
2022/01/21 21:30:28;;;;;;;5.22;1.52;;;;;;;;;;10484524;28;20049;-67
2022/01/21 22:13:17;;;;;;;8.83;3.03;;;;;;;;;;10478422;28;20044;-70
2022/01/21 22:22:40;;;;;;;5.37;1.87;;;;;;;;;;10483649;28;20064;-69
2022/01/21 22:51:21;;;;;;;7.90;3.07;;;;;;;;;;10481840;28;20528;-70
2022/01/21 23:01:45;;;;;;;1.30;0.63;;;;;;;;;;10488412;28;20115;-72
2022/01/21 23:06:53;;;;;;;5.23;2.07;;;;;;;;;;10488175;28;20052;-70
2022/01/21 23:11:56;;;;;;;0.80;0.50;;;;;;;;;;10482114;28;20037;-70
2022/01/21 23:16:59;;;;;;;7.70;3.30;;;;;;;;;;10476835;28;20059;-70
2022/01/21 23:22:04;;;;;;;5.63;2.05;;;;;;;;;;10486396;28;20036;-70
2022/01/21 23:27:20;;;;;;;2.37;1.30;;;;;;;;;;10484511;28;20037;-71
2022/01/21 23:32:26;;;;;;;7.97;2.40;;;;;;;;;;10484177;28;20067;-69
2022/01/21 23:37:34;;;;;;;6.30;1.80;;;;;;;;;;10480409;28;20398;-68
2022/01/21 23:42:37;;;;;;;3.70;1.03;;;;;;;;;;10477640;28;20054;-69
2022/01/21 23:47:42;;;;;;;4.33;1.50;;;;;;;;;;10481577;28;20049;-70
2022/01/21 23:52:47;;;;;;;6.80;1.63;;;;;;;;;;10481844;28;20029;-70
2022/01/21 23:57:51;;;;;;;3.00;0.90;;;;;;;;;;10478270;28;20064;-69
